sensor_id;sensor_type;location;lat;lon;timestamp;temperature;humidity
23301;DHT22;11819;51.394;12.340;2022-07-29T00:01:33;20.30;50.20
23301;DHT22;11819;51.394;12.340;2022-07-29T00:03:58;20.30;50.20
23301;DHT22;11819;51.394;12.340;2022-07-29T00:06:24;20.30;50.30
23301;DHT22;11819;51.394;12.340;2022-07-29T00:08:50;20.30;50.30
23301;DHT22;11819;51.394;12.340;2022-07-29T00:11:15;20.30;50.30
23301;DHT22;11819;51.394;12.340;2022-07-29T00:13:41;20.30;50.40
23301;DHT22;11819;51.394;12.340;2022-07-29T00:16:06;20.30;50.40
23301;DHT22;11819;51.394;12.340;2022-07-29T00:18:32;20.30;50.40
23301;DHT22;11819;51.394;12.340;2022-07-29T00:20:58;20.30;50.40
23301;DHT22;11819;51.394;12.340;2022-07-29T00:23:23;20.30;50.40
23301;DHT22;11819;51.394;12.340;2022-07-29T00:25:49;20.30;50.40
23301;DHT22;11819;51.394;12.340;2022-07-29T00:28:14;20.20;50.40
23301;DHT22;11819;51.394;12.340;2022-07-29T00:30:40;20.30;50.40
23301;DHT22;11819;51.394;12.340;2022-07-29T00:33:08;20.20;50.40
23301;DHT22;11819;51.394;12.340;2022-07-29T00:35:34;20.20;50.40
23301;DHT22;11819;51.394;12.340;2022-07-29T00:38:10;20.30;50.50
23301;DHT22;11819;51.394;12.340;2022-07-29T00:40:36;20.30;50.40
23301;DHT22;11819;51.394;12.340;2022-07-29T00:43:01;20.30;50.50
23301;DHT22;11819;51.394;12.340;2022-07-29T00:45:27;20.30;50.60
23301;DHT22;11819;51.394;12.340;2022-07-29T00:47:53;20.20;50.60
23301;DHT22;11819;51.394;12.340;2022-07-29T00:50:18;20.20;50.60
23301;DHT22;11819;51.394;12.340;2022-07-29T00:52:44;20.20;50.70
23301;DHT22;11819;51.394;12.340;2022-07-29T00:55:12;20.20;50.70
23301;DHT22;11819;51.394;12.340;2022-07-29T00:57:39;20.20;50.60
23301;DHT22;11819;51.394;12.340;2022-07-29T01:00:07;20.20;50.60
23301;DHT22;11819;51.394;12.340;2022-07-29T01:02:33;20.20;50.60
23301;DHT22;11819;51.394;12.340;2022-07-29T01:04:59;20.20;50.70
23301;DHT22;11819;51.394;12.340;2022-07-29T01:07:26;20.20;50.70
23301;DHT22;11819;51.394;12.340;2022-07-29T01:09:53;20.20;50.70
23301;DHT22;11819;51.394;12.340;2022-07-29T01:12:25;20.20;50.70
23301;DHT22;11819;51.394;12.340;2022-07-29T01:14:53;20.20;50.80
23301;DHT22;11819;51.394;12.340;2022-07-29T01:17:24;20.20;50.80
23301;DHT22;11819;51.394;12.340;2022-07-29T01:20:17;20.20;50.80
23301;DHT22;11819;51.394;12.340;2022-07-29T01:26:11;20.20;50.80
23301;DHT22;11819;51.394;12.340;2022-07-29T01:31:43;20.10;50.90
23301;DHT22;11819;51.394;12.340;2022-07-29T01:34:15;20.10;51.00
23301;DHT22;11819;51.394;12.340;2022-07-29T01:36:50;20.00;51.00
23301;DHT22;11819;51.394;12.340;2022-07-29T01:39:30;20.00;51.20
23301;DHT22;11819;51.394;12.340;2022-07-29T01:42:17;20.00;51.20
23301;DHT22;11819;51.394;12.340;2022-07-29T01:45:15;20.00;51.20
23301;DHT22;11819;51.394;12.340;2022-07-29T01:50:49;19.90;51.30
23301;DHT22;11819;51.394;12.340;2022-07-29T01:53:25;19.90;51.40
23301;DHT22;11819;51.394;12.340;2022-07-29T01:55:52;19.90;51.40
23301;DHT22;11819;51.394;12.340;2022-07-29T01:58:19;19.90;51.50
23301;DHT22;11819;51.394;12.340;2022-07-29T02:00:46;19.90;51.50
23301;DHT22;11819;51.394;12.340;2022-07-29T02:03:15;19.90;51.60
23301;DHT22;11819;51.394;12.340;2022-07-29T02:05:44;19.90;51.60
23301;DHT22;11819;51.394;12.340;2022-07-29T02:08:11;19.80;51.60
23301;DHT22;11819;51.394;12.340;2022-07-29T02:10:38;19.80;51.60
23301;DHT22;11819;51.394;12.340;2022-07-29T02:13:05;19.80;51.70
23301;DHT22;11819;51.394;12.340;2022-07-29T02:15:34;19.80;51.70
23301;DHT22;11819;51.394;12.340;2022-07-29T02:18:20;19.80;51.70
23301;DHT22;11819;51.394;12.340;2022-07-29T02:20:50;19.80;51.80
23301;DHT22;11819;51.394;12.340;2022-07-29T02:23:19;19.80;51.80
23301;DHT22;11819;51.394;12.340;2022-07-29T02:25:49;19.80;51.90
23301;DHT22;11819;51.394;12.340;2022-07-29T02:28:17;19.80;51.90
23301;DHT22;11819;51.394;12.340;2022-07-29T02:30:45;19.80;52.00
23301;DHT22;11819;51.394;12.340;2022-07-29T02:33:14;19.70;52.00
23301;DHT22;11819;51.394;12.340;2022-07-29T02:35:41;19.70;52.10
23301;DHT22;11819;51.394;12.340;2022-07-29T02:38:12;19.70;52.20
23301;DHT22;11819;51.394;12.340;2022-07-29T02:40:57;19.60;52.30
23301;DHT22;11819;51.394;12.340;2022-07-29T02:43:24;19.60;52.40
23301;DHT22;11819;51.394;12.340;2022-07-29T02:45:52;19.60;52.50
23301;DHT22;11819;51.394;12.340;2022-07-29T02:48:25;19.60;52.60
23301;DHT22;11819;51.394;12.340;2022-07-29T02:50:58;19.60;52.50
23301;DHT22;11819;51.394;12.340;2022-07-29T02:53:27;19.50;52.50
23301;DHT22;11819;51.394;12.340;2022-07-29T02:56:13;19.50;52.50
23301;DHT22;11819;51.394;12.340;2022-07-29T02:58:46;19.50;52.50
23301;DHT22;11819;51.394;12.340;2022-07-29T03:01:16;19.50;52.60
23301;DHT22;11819;51.394;12.340;2022-07-29T03:03:44;19.50;52.70
23301;DHT22;11819;51.394;12.340;2022-07-29T03:06:12;19.50;52.70
23301;DHT22;11819;51.394;12.340;2022-07-29T03:08:39;19.50;52.70
23301;DHT22;11819;51.394;12.340;2022-07-29T03:11:07;19.50;52.70
23301;DHT22;11819;51.394;12.340;2022-07-29T03:13:34;19.50;52.80
23301;DHT22;11819;51.394;12.340;2022-07-29T03:16:01;19.50;52.80
23301;DHT22;11819;51.394;12.340;2022-07-29T03:18:27;19.50;52.90
23301;DHT22;11819;51.394;12.340;2022-07-29T03:20:52;19.50;52.90
23301;DHT22;11819;51.394;12.340;2022-07-29T03:23:22;19.40;52.90
23301;DHT22;11819;51.394;12.340;2022-07-29T03:25:50;19.40;52.90
23301;DHT22;11819;51.394;12.340;2022-07-29T03:28:15;19.40;52.90
23301;DHT22;11819;51.394;12.340;2022-07-29T03:30:41;19.40;52.90
23301;DHT22;11819;51.394;12.340;2022-07-29T03:33:07;19.40;53.00
23301;DHT22;11819;51.394;12.340;2022-07-29T03:35:32;19.40;53.60
23301;DHT22;11819;51.394;12.340;2022-07-29T03:37:58;19.40;53.00
23301;DHT22;11819;51.394;12.340;2022-07-29T03:40:27;19.40;53.10
23301;DHT22;11819;51.394;12.340;2022-07-29T03:42:56;19.30;53.20
23301;DHT22;11819;51.394;12.340;2022-07-29T03:45:23;19.30;53.30
23301;DHT22;11819;51.394;12.340;2022-07-29T03:47:53;19.30;53.30
23301;DHT22;11819;51.394;12.340;2022-07-29T03:50:21;19.20;53.30
23301;DHT22;11819;51.394;12.340;2022-07-29T03:52:47;19.20;53.40
23301;DHT22;11819;51.394;12.340;2022-07-29T03:55:14;19.20;53.40
23301;DHT22;11819;51.394;12.340;2022-07-29T03:57:40;19.20;53.50
23301;DHT22;11819;51.394;12.340;2022-07-29T04:00:07;19.20;53.50
23301;DHT22;11819;51.394;12.340;2022-07-29T04:02:33;19.20;53.60
23301;DHT22;11819;51.394;12.340;2022-07-29T04:04:59;19.10;53.60
23301;DHT22;11819;51.394;12.340;2022-07-29T04:07:25;19.10;53.70
23301;DHT22;11819;51.394;12.340;2022-07-29T04:09:51;19.10;53.80
23301;DHT22;11819;51.394;12.340;2022-07-29T04:12:16;19.10;53.90
23301;DHT22;11819;51.394;12.340;2022-07-29T04:14:42;19.00;54.00
23301;DHT22;11819;51.394;12.340;2022-07-29T04:17:07;19.00;54.10
23301;DHT22;11819;51.394;12.340;2022-07-29T04:19:33;19.00;54.30
23301;DHT22;11819;51.394;12.340;2022-07-29T04:21:59;18.90;54.40
23301;DHT22;11819;51.394;12.340;2022-07-29T04:24:25;18.90;54.50
23301;DHT22;11819;51.394;12.340;2022-07-29T04:26:51;18.90;54.70
23301;DHT22;11819;51.394;12.340;2022-07-29T04:29:17;18.90;54.80
23301;DHT22;11819;51.394;12.340;2022-07-29T04:31:43;18.90;54.90
23301;DHT22;11819;51.394;12.340;2022-07-29T04:34:09;18.80;54.90
23301;DHT22;11819;51.394;12.340;2022-07-29T04:36:35;18.90;55.00
23301;DHT22;11819;51.394;12.340;2022-07-29T04:39:00;18.90;55.10
23301;DHT22;11819;51.394;12.340;2022-07-29T04:41:30;18.90;55.10
23301;DHT22;11819;51.394;12.340;2022-07-29T04:43:56;18.90;55.20
23301;DHT22;11819;51.394;12.340;2022-07-29T04:46:22;18.90;55.20
23301;DHT22;11819;51.394;12.340;2022-07-29T04:48:47;18.90;55.20
23301;DHT22;11819;51.394;12.340;2022-07-29T04:51:14;19.00;55.20
23301;DHT22;11819;51.394;12.340;2022-07-29T04:53:40;19.00;55.20
23301;DHT22;11819;51.394;12.340;2022-07-29T04:56:06;19.00;55.30
23301;DHT22;11819;51.394;12.340;2022-07-29T04:58:33;19.00;55.30
23301;DHT22;11819;51.394;12.340;2022-07-29T05:00:59;19.00;55.30
23301;DHT22;11819;51.394;12.340;2022-07-29T05:03:24;19.00;55.30
23301;DHT22;11819;51.394;12.340;2022-07-29T05:05:50;19.00;55.40
23301;DHT22;11819;51.394;12.340;2022-07-29T05:08:15;19.00;55.40
23301;DHT22;11819;51.394;12.340;2022-07-29T05:10:41;19.00;55.50
23301;DHT22;11819;51.394;12.340;2022-07-29T05:13:07;19.00;55.60
23301;DHT22;11819;51.394;12.340;2022-07-29T05:15:33;19.00;55.60
23301;DHT22;11819;51.394;12.340;2022-07-29T05:18:00;19.10;55.70
23301;DHT22;11819;51.394;12.340;2022-07-29T05:20:25;19.10;55.70
23301;DHT22;11819;51.394;12.340;2022-07-29T05:22:55;19.10;55.70
23301;DHT22;11819;51.394;12.340;2022-07-29T05:25:21;19.10;55.60
23301;DHT22;11819;51.394;12.340;2022-07-29T05:27:47;19.10;55.60
23301;DHT22;11819;51.394;12.340;2022-07-29T05:30:13;19.20;55.60
23301;DHT22;11819;51.394;12.340;2022-07-29T05:32:38;19.20;55.50
23301;DHT22;11819;51.394;12.340;2022-07-29T05:35:04;19.20;55.50
23301;DHT22;11819;51.394;12.340;2022-07-29T05:37:30;19.30;55.40
23301;DHT22;11819;51.394;12.340;2022-07-29T05:39:56;19.40;55.40
23301;DHT22;11819;51.394;12.340;2022-07-29T05:42:21;19.40;55.20
23301;DHT22;11819;51.394;12.340;2022-07-29T05:44:47;19.40;55.10
23301;DHT22;11819;51.394;12.340;2022-07-29T05:47:13;19.50;55.10
23301;DHT22;11819;51.394;12.340;2022-07-29T05:49:38;19.50;54.90
23301;DHT22;11819;51.394;12.340;2022-07-29T05:52:04;19.60;54.90
23301;DHT22;11819;51.394;12.340;2022-07-29T05:54:30;19.60;54.80
23301;DHT22;11819;51.394;12.340;2022-07-29T05:56:56;19.60;54.70
23301;DHT22;11819;51.394;12.340;2022-07-29T05:59:21;19.70;54.60
23301;DHT22;11819;51.394;12.340;2022-07-29T06:01:47;19.70;54.40
23301;DHT22;11819;51.394;12.340;2022-07-29T06:04:12;19.80;54.30
23301;DHT22;11819;51.394;12.340;2022-07-29T06:06:38;19.80;54.10
23301;DHT22;11819;51.394;12.340;2022-07-29T06:09:04;19.80;54.00
23301;DHT22;11819;51.394;12.340;2022-07-29T06:11:29;19.90;53.90
23301;DHT22;11819;51.394;12.340;2022-07-29T06:13:55;19.90;53.90
23301;DHT22;11819;51.394;12.340;2022-07-29T06:16:21;20.00;53.80
23301;DHT22;11819;51.394;12.340;2022-07-29T06:18:46;20.00;53.70
23301;DHT22;11819;51.394;12.340;2022-07-29T06:21:12;20.00;53.40
23301;DHT22;11819;51.394;12.340;2022-07-29T06:23:38;20.00;53.30
23301;DHT22;11819;51.394;12.340;2022-07-29T06:26:04;20.00;53.20
23301;DHT22;11819;51.394;12.340;2022-07-29T06:28:30;20.10;53.10
23301;DHT22;11819;51.394;12.340;2022-07-29T06:30:55;20.10;53.10
23301;DHT22;11819;51.394;12.340;2022-07-29T06:33:21;20.10;53.10
23301;DHT22;11819;51.394;12.340;2022-07-29T06:35:47;20.10;53.10
23301;DHT22;11819;51.394;12.340;2022-07-29T06:38:13;20.20;53.10
23301;DHT22;11819;51.394;12.340;2022-07-29T06:40:43;20.20;53.10
23301;DHT22;11819;51.394;12.340;2022-07-29T06:43:29;20.30;53.00
23301;DHT22;11819;51.394;12.340;2022-07-29T06:45:58;20.30;53.00
23301;DHT22;11819;51.394;12.340;2022-07-29T06:48:24;20.30;52.80
23301;DHT22;11819;51.394;12.340;2022-07-29T06:50:50;20.30;52.70
23301;DHT22;11819;51.394;12.340;2022-07-29T06:53:15;20.40;52.80
23301;DHT22;11819;51.394;12.340;2022-07-29T06:55:41;20.40;52.80
23301;DHT22;11819;51.394;12.340;2022-07-29T06:58:07;20.40;52.70
23301;DHT22;11819;51.394;12.340;2022-07-29T07:00:34;20.50;52.70
23301;DHT22;11819;51.394;12.340;2022-07-29T07:03:01;20.50;52.70
23301;DHT22;11819;51.394;12.340;2022-07-29T07:05:26;20.60;52.70
23301;DHT22;11819;51.394;12.340;2022-07-29T07:07:52;20.60;52.60
23301;DHT22;11819;51.394;12.340;2022-07-29T07:10:17;20.70;52.50
23301;DHT22;11819;51.394;12.340;2022-07-29T07:12:43;20.80;52.40
23301;DHT22;11819;51.394;12.340;2022-07-29T07:15:09;20.80;52.30
23301;DHT22;11819;51.394;12.340;2022-07-29T07:17:35;20.90;52.20
23301;DHT22;11819;51.394;12.340;2022-07-29T07:20:00;20.90;52.10
23301;DHT22;11819;51.394;12.340;2022-07-29T07:22:26;21.00;52.10
23301;DHT22;11819;51.394;12.340;2022-07-29T07:24:51;21.00;52.10
23301;DHT22;11819;51.394;12.340;2022-07-29T07:27:17;21.10;52.40
23301;DHT22;11819;51.394;12.340;2022-07-29T07:29:43;21.10;51.90
23301;DHT22;11819;51.394;12.340;2022-07-29T07:32:08;21.20;51.90
23301;DHT22;11819;51.394;12.340;2022-07-29T07:34:34;21.20;51.80
23301;DHT22;11819;51.394;12.340;2022-07-29T07:36:59;21.20;51.70
23301;DHT22;11819;51.394;12.340;2022-07-29T07:39:25;21.30;51.60
23301;DHT22;11819;51.394;12.340;2022-07-29T07:41:52;21.30;51.50
23301;DHT22;11819;51.394;12.340;2022-07-29T07:44:17;21.30;51.50
23301;DHT22;11819;51.394;12.340;2022-07-29T07:46:43;21.30;51.50
23301;DHT22;11819;51.394;12.340;2022-07-29T07:49:10;21.40;51.40
23301;DHT22;11819;51.394;12.340;2022-07-29T07:51:36;21.40;51.30
23301;DHT22;11819;51.394;12.340;2022-07-29T07:54:01;21.50;51.20
23301;DHT22;11819;51.394;12.340;2022-07-29T07:56:27;21.50;51.20
23301;DHT22;11819;51.394;12.340;2022-07-29T07:58:53;21.60;51.10
23301;DHT22;11819;51.394;12.340;2022-07-29T08:01:18;21.60;51.00
23301;DHT22;11819;51.394;12.340;2022-07-29T08:03:48;21.60;51.00
23301;DHT22;11819;51.394;12.340;2022-07-29T08:06:14;21.60;51.00
23301;DHT22;11819;51.394;12.340;2022-07-29T08:08:39;21.70;50.90
23301;DHT22;11819;51.394;12.340;2022-07-29T08:11:05;21.70;50.80
23301;DHT22;11819;51.394;12.340;2022-07-29T08:13:31;21.80;50.80
23301;DHT22;11819;51.394;12.340;2022-07-29T08:15:58;21.80;50.60
23301;DHT22;11819;51.394;12.340;2022-07-29T08:18:29;21.90;50.60
23301;DHT22;11819;51.394;12.340;2022-07-29T08:20:55;22.00;50.60
23301;DHT22;11819;51.394;12.340;2022-07-29T08:23:21;22.10;50.70
23301;DHT22;11819;51.394;12.340;2022-07-29T08:25:48;22.10;50.60
23301;DHT22;11819;51.394;12.340;2022-07-29T08:28:14;22.20;50.50
23301;DHT22;11819;51.394;12.340;2022-07-29T08:30:40;22.30;50.40
23301;DHT22;11819;51.394;12.340;2022-07-29T08:33:05;22.40;50.30
23301;DHT22;11819;51.394;12.340;2022-07-29T08:35:31;22.50;50.10
23301;DHT22;11819;51.394;12.340;2022-07-29T08:37:57;22.60;50.00
23301;DHT22;11819;51.394;12.340;2022-07-29T08:40:23;22.70;50.00
23301;DHT22;11819;51.394;12.340;2022-07-29T08:42:50;22.70;50.40
23301;DHT22;11819;51.394;12.340;2022-07-29T08:45:16;22.90;49.70
23301;DHT22;11819;51.394;12.340;2022-07-29T08:47:44;22.90;49.50
23301;DHT22;11819;51.394;12.340;2022-07-29T08:50:11;22.90;49.30
23301;DHT22;11819;51.394;12.340;2022-07-29T08:52:39;23.00;49.30
23301;DHT22;11819;51.394;12.340;2022-07-29T08:55:06;23.00;49.20
23301;DHT22;11819;51.394;12.340;2022-07-29T08:57:33;23.10;49.20
23301;DHT22;11819;51.394;12.340;2022-07-29T09:00:01;23.10;49.00
23301;DHT22;11819;51.394;12.340;2022-07-29T09:02:29;23.20;49.00
23301;DHT22;11819;51.394;12.340;2022-07-29T09:05:00;23.30;48.90
23301;DHT22;11819;51.394;12.340;2022-07-29T09:07:26;23.30;48.70
23301;DHT22;11819;51.394;12.340;2022-07-29T09:09:52;23.40;49.30
23301;DHT22;11819;51.394;12.340;2022-07-29T09:12:18;23.40;48.60
23301;DHT22;11819;51.394;12.340;2022-07-29T09:14:43;23.50;48.50
23301;DHT22;11819;51.394;12.340;2022-07-29T09:17:09;23.50;48.30
23301;DHT22;11819;51.394;12.340;2022-07-29T09:19:36;23.60;48.30
23301;DHT22;11819;51.394;12.340;2022-07-29T09:22:05;23.60;48.20
23301;DHT22;11819;51.394;12.340;2022-07-29T09:24:41;23.60;48.10
23301;DHT22;11819;51.394;12.340;2022-07-29T09:27:18;23.60;48.00
23301;DHT22;11819;51.394;12.340;2022-07-29T09:29:44;23.70;48.00
23301;DHT22;11819;51.394;12.340;2022-07-29T09:32:10;23.70;48.00
23301;DHT22;11819;51.394;12.340;2022-07-29T09:34:36;23.80;48.00
23301;DHT22;11819;51.394;12.340;2022-07-29T09:37:02;23.90;48.00
23301;DHT22;11819;51.394;12.340;2022-07-29T09:41:58;24.00;47.80
23301;DHT22;11819;51.394;12.340;2022-07-29T09:44:24;24.10;47.80
23301;DHT22;11819;51.394;12.340;2022-07-29T09:49:27;24.20;47.50
23301;DHT22;11819;51.394;12.340;2022-07-29T09:52:08;24.30;47.10
23301;DHT22;11819;51.394;12.340;2022-07-29T09:54:34;24.40;47.00
23301;DHT22;11819;51.394;12.340;2022-07-29T09:57:08;24.50;46.90
23301;DHT22;11819;51.394;12.340;2022-07-29T09:59:38;24.50;46.80
23301;DHT22;11819;51.394;12.340;2022-07-29T10:02:12;24.60;46.70
23301;DHT22;11819;51.394;12.340;2022-07-29T10:04:41;24.70;46.50
23301;DHT22;11819;51.394;12.340;2022-07-29T10:07:08;24.80;46.40
23301;DHT22;11819;51.394;12.340;2022-07-29T10:09:34;24.80;46.20
23301;DHT22;11819;51.394;12.340;2022-07-29T10:12:26;24.90;46.10
23301;DHT22;11819;51.394;12.340;2022-07-29T10:14:52;24.90;46.00
23301;DHT22;11819;51.394;12.340;2022-07-29T10:17:18;25.00;45.90
23301;DHT22;11819;51.394;12.340;2022-07-29T10:19:44;25.00;45.70
23301;DHT22;11819;51.394;12.340;2022-07-29T10:22:10;25.10;45.50
23301;DHT22;11819;51.394;12.340;2022-07-29T10:24:38;25.20;45.40
23301;DHT22;11819;51.394;12.340;2022-07-29T10:27:06;25.30;45.10
23301;DHT22;11819;51.394;12.340;2022-07-29T10:29:32;25.30;44.90
23301;DHT22;11819;51.394;12.340;2022-07-29T10:34:36;25.50;44.60
23301;DHT22;11819;51.394;12.340;2022-07-29T10:37:20;25.50;44.40
23301;DHT22;11819;51.394;12.340;2022-07-29T10:40:15;25.60;45.00
23301;DHT22;11819;51.394;12.340;2022-07-29T10:43:14;25.60;44.30
23301;DHT22;11819;51.394;12.340;2022-07-29T10:45:42;25.70;44.80
23301;DHT22;11819;51.394;12.340;2022-07-29T10:48:08;25.80;44.00
23301;DHT22;11819;51.394;12.340;2022-07-29T10:51:12;25.80;43.90
23301;DHT22;11819;51.394;12.340;2022-07-29T10:53:51;25.90;43.40
23301;DHT22;11819;51.394;12.340;2022-07-29T10:56:26;26.00;43.00
23301;DHT22;11819;51.394;12.340;2022-07-29T11:01:49;26.10;42.50
23301;DHT22;11819;51.394;12.340;2022-07-29T11:04:16;26.20;42.40
23301;DHT22;11819;51.394;12.340;2022-07-29T11:09:30;26.30;41.60
23301;DHT22;11819;51.394;12.340;2022-07-29T11:11:57;26.30;41.50
23301;DHT22;11819;51.394;12.340;2022-07-29T11:15:16;26.30;41.40
23301;DHT22;11819;51.394;12.340;2022-07-29T11:23:18;26.50;40.90
23301;DHT22;11819;51.394;12.340;2022-07-29T11:25:44;26.60;40.80
23301;DHT22;11819;51.394;12.340;2022-07-29T11:28:20;26.80;40.80
23301;DHT22;11819;51.394;12.340;2022-07-29T11:30:51;26.80;40.60
23301;DHT22;11819;51.394;12.340;2022-07-29T11:33:33;26.90;40.30
23301;DHT22;11819;51.394;12.340;2022-07-29T11:38:34;27.00;40.40
23301;DHT22;11819;51.394;12.340;2022-07-29T11:41:19;27.10;40.40
23301;DHT22;11819;51.394;12.340;2022-07-29T11:43:56;27.20;40.20
23301;DHT22;11819;51.394;12.340;2022-07-29T11:46:49;27.40;40.10
23301;DHT22;11819;51.394;12.340;2022-07-29T11:49:24;27.50;39.80
23301;DHT22;11819;51.394;12.340;2022-07-29T11:51:55;27.60;39.40
23301;DHT22;11819;51.394;12.340;2022-07-29T11:54:25;27.70;39.20
23301;DHT22;11819;51.394;12.340;2022-07-29T11:56:52;27.80;39.10
23301;DHT22;11819;51.394;12.340;2022-07-29T11:59:19;27.90;38.90
23301;DHT22;11819;51.394;12.340;2022-07-29T12:01:55;28.00;38.60
23301;DHT22;11819;51.394;12.340;2022-07-29T12:04:21;28.00;37.90
23301;DHT22;11819;51.394;12.340;2022-07-29T12:06:53;28.10;38.20
23301;DHT22;11819;51.394;12.340;2022-07-29T12:09:20;28.30;38.30
23301;DHT22;11819;51.394;12.340;2022-07-29T12:11:46;28.40;38.00
23301;DHT22;11819;51.394;12.340;2022-07-29T12:14:29;28.50;38.00
23301;DHT22;11819;51.394;12.340;2022-07-29T12:16:55;28.70;37.60
23301;DHT22;11819;51.394;12.340;2022-07-29T12:19:21;28.80;37.70
23301;DHT22;11819;51.394;12.340;2022-07-29T12:21:49;28.90;37.40
23301;DHT22;11819;51.394;12.340;2022-07-29T12:24:16;29.00;37.40
23301;DHT22;11819;51.394;12.340;2022-07-29T12:26:59;29.10;37.20
23301;DHT22;11819;51.394;12.340;2022-07-29T12:29:25;29.20;37.20
23301;DHT22;11819;51.394;12.340;2022-07-29T12:31:55;29.30;37.10
23301;DHT22;11819;51.394;12.340;2022-07-29T12:34:26;29.40;36.90
23301;DHT22;11819;51.394;12.340;2022-07-29T12:36:53;29.60;37.10
23301;DHT22;11819;51.394;12.340;2022-07-29T12:39:20;29.80;37.10
23301;DHT22;11819;51.394;12.340;2022-07-29T12:41:45;30.10;37.10
23301;DHT22;11819;51.394;12.340;2022-07-29T12:44:11;30.40;36.80
23301;DHT22;11819;51.394;12.340;2022-07-29T12:46:37;30.60;36.40
23301;DHT22;11819;51.394;12.340;2022-07-29T12:49:03;30.80;36.20
23301;DHT22;11819;51.394;12.340;2022-07-29T12:51:36;30.80;36.00
23301;DHT22;11819;51.394;12.340;2022-07-29T12:54:11;30.70;35.90
23301;DHT22;11819;51.394;12.340;2022-07-29T12:56:39;30.50;36.00
23301;DHT22;11819;51.394;12.340;2022-07-29T12:59:20;30.30;36.10
23301;DHT22;11819;51.394;12.340;2022-07-29T13:01:48;30.20;36.30
23301;DHT22;11819;51.394;12.340;2022-07-29T13:04:25;30.20;36.60
23301;DHT22;11819;51.394;12.340;2022-07-29T13:07:07;30.20;36.40
23301;DHT22;11819;51.394;12.340;2022-07-29T13:12:07;30.10;36.30
23301;DHT22;11819;51.394;12.340;2022-07-29T13:14:40;30.00;36.30
23301;DHT22;11819;51.394;12.340;2022-07-29T13:17:12;29.90;36.90
23301;DHT22;11819;51.394;12.340;2022-07-29T13:19:40;29.80;36.20
23301;DHT22;11819;51.394;12.340;2022-07-29T13:22:11;29.70;36.40
23301;DHT22;11819;51.394;12.340;2022-07-29T13:24:56;29.70;36.70
23301;DHT22;11819;51.394;12.340;2022-07-29T13:27:25;29.60;36.70
23301;DHT22;11819;51.394;12.340;2022-07-29T13:29:51;29.60;36.60
23301;DHT22;11819;51.394;12.340;2022-07-29T13:32:18;29.50;36.80
23301;DHT22;11819;51.394;12.340;2022-07-29T13:34:44;29.50;36.90
23301;DHT22;11819;51.394;12.340;2022-07-29T13:37:10;29.50;37.00
23301;DHT22;11819;51.394;12.340;2022-07-29T13:39:35;29.50;37.00
23301;DHT22;11819;51.394;12.340;2022-07-29T13:42:03;29.50;36.90
23301;DHT22;11819;51.394;12.340;2022-07-29T13:44:29;29.40;36.80
23301;DHT22;11819;51.394;12.340;2022-07-29T13:46:54;29.40;36.80
23301;DHT22;11819;51.394;12.340;2022-07-29T13:49:21;29.30;36.80
23301;DHT22;11819;51.394;12.340;2022-07-29T13:51:48;29.30;36.80
23301;DHT22;11819;51.394;12.340;2022-07-29T13:54:14;29.20;37.00
23301;DHT22;11819;51.394;12.340;2022-07-29T13:56:39;29.20;37.10
23301;DHT22;11819;51.394;12.340;2022-07-29T13:59:05;29.10;37.10
23301;DHT22;11819;51.394;12.340;2022-07-29T14:01:30;29.10;37.10
23301;DHT22;11819;51.394;12.340;2022-07-29T14:03:56;29.00;37.20
23301;DHT22;11819;51.394;12.340;2022-07-29T14:06:21;29.00;37.20
23301;DHT22;11819;51.394;12.340;2022-07-29T14:08:47;28.90;37.30
23301;DHT22;11819;51.394;12.340;2022-07-29T14:11:13;28.80;37.30
23301;DHT22;11819;51.394;12.340;2022-07-29T14:13:38;28.80;37.40
23301;DHT22;11819;51.394;12.340;2022-07-29T14:16:04;28.80;37.50
23301;DHT22;11819;51.394;12.340;2022-07-29T14:18:29;28.80;37.70
23301;DHT22;11819;51.394;12.340;2022-07-29T14:20:55;28.70;37.70
23301;DHT22;11819;51.394;12.340;2022-07-29T14:23:21;28.70;37.80
23301;DHT22;11819;51.394;12.340;2022-07-29T14:25:47;28.70;38.00
23301;DHT22;11819;51.394;12.340;2022-07-29T14:28:13;28.70;38.00
23301;DHT22;11819;51.394;12.340;2022-07-29T14:30:38;28.60;37.90
23301;DHT22;11819;51.394;12.340;2022-07-29T14:33:04;28.60;38.00
23301;DHT22;11819;51.394;12.340;2022-07-29T14:35:30;28.60;38.10
23301;DHT22;11819;51.394;12.340;2022-07-29T14:37:56;28.50;38.20
23301;DHT22;11819;51.394;12.340;2022-07-29T14:40:22;28.60;38.20
23301;DHT22;11819;51.394;12.340;2022-07-29T14:42:48;28.60;38.30
23301;DHT22;11819;51.394;12.340;2022-07-29T14:45:14;28.60;38.40
23301;DHT22;11819;51.394;12.340;2022-07-29T14:47:40;28.60;38.40
23301;DHT22;11819;51.394;12.340;2022-07-29T14:50:06;28.60;38.20
23301;DHT22;11819;51.394;12.340;2022-07-29T14:52:32;28.60;38.20
23301;DHT22;11819;51.394;12.340;2022-07-29T14:54:58;28.60;38.20
23301;DHT22;11819;51.394;12.340;2022-07-29T14:57:23;28.60;38.20
23301;DHT22;11819;51.394;12.340;2022-07-29T14:59:49;28.70;38.40
23301;DHT22;11819;51.394;12.340;2022-07-29T15:02:15;28.70;38.40
23301;DHT22;11819;51.394;12.340;2022-07-29T15:04:40;28.70;38.50
23301;DHT22;11819;51.394;12.340;2022-07-29T15:07:06;28.70;38.60
23301;DHT22;11819;51.394;12.340;2022-07-29T15:09:31;28.70;38.60
23301;DHT22;11819;51.394;12.340;2022-07-29T15:11:57;28.70;38.50
23301;DHT22;11819;51.394;12.340;2022-07-29T15:14:23;28.70;38.50
23301;DHT22;11819;51.394;12.340;2022-07-29T15:16:48;28.70;38.50
23301;DHT22;11819;51.394;12.340;2022-07-29T15:19:14;28.70;38.60
23301;DHT22;11819;51.394;12.340;2022-07-29T15:21:39;28.70;38.60
23301;DHT22;11819;51.394;12.340;2022-07-29T15:24:05;28.70;38.60
23301;DHT22;11819;51.394;12.340;2022-07-29T15:26:32;28.70;38.80
23301;DHT22;11819;51.394;12.340;2022-07-29T15:28:59;28.70;38.80
23301;DHT22;11819;51.394;12.340;2022-07-29T15:31:24;28.70;38.90
23301;DHT22;11819;51.394;12.340;2022-07-29T15:33:50;28.70;38.90
23301;DHT22;11819;51.394;12.340;2022-07-29T15:36:15;28.70;38.90
23301;DHT22;11819;51.394;12.340;2022-07-29T15:38:41;28.70;39.00
23301;DHT22;11819;51.394;12.340;2022-07-29T15:41:07;28.70;39.00
23301;DHT22;11819;51.394;12.340;2022-07-29T15:43:33;28.70;39.10
23301;DHT22;11819;51.394;12.340;2022-07-29T15:46:00;28.80;39.20
23301;DHT22;11819;51.394;12.340;2022-07-29T15:48:45;28.70;39.00
23301;DHT22;11819;51.394;12.340;2022-07-29T15:51:10;28.70;39.10
23301;DHT22;11819;51.394;12.340;2022-07-29T15:53:36;28.80;39.10
23301;DHT22;11819;51.394;12.340;2022-07-29T15:56:02;28.80;39.10